createdAt,value
2022-11-01T13:43:05.428Z,9.35
2022-11-01T13:45:53.492Z,8.80
2022-11-01T13:48:33.445Z,8.40
2022-11-01T13:51:19.452Z,8.80
2022-11-01T13:53:53.696Z,8.00
2022-11-01T13:56:29.526Z,8.40
2022-11-01T13:58:59.034Z,8.98
2022-11-01T14:01:31.248Z,8.90
2022-11-01T14:06:37.432Z,8.52
2022-11-01T14:09:31.332Z,9.10
2022-11-01T14:12:12.352Z,8.77
2022-11-01T14:14:52.633Z,9.52
2022-11-01T14:17:55.109Z,9.82
2022-11-01T14:20:50.212Z,10.18
2022-11-01T14:23:52.338Z,10.15
2022-11-01T14:26:45.171Z,11.02
2022-11-01T14:29:13.332Z,10.75
2022-11-01T14:31:44.978Z,10.50
2022-11-01T14:34:25.331Z,11.30
2022-11-01T14:36:57.352Z,10.60
2022-11-01T14:39:32.278Z,12.27
2022-11-01T14:42:03.219Z,11.82
2022-11-01T14:44:36.515Z,10.65
2022-11-01T14:47:23.731Z,10.65
2022-11-01T14:49:57.643Z,11.50
2022-11-01T14:52:32.099Z,11.40
2022-11-01T14:55:08.352Z,10.80
2022-11-01T14:57:36.317Z,11.45
2022-11-01T15:00:28.489Z,12.30
2022-11-01T15:05:32.440Z,11.63
2022-11-01T15:08:01.035Z,11.65
2022-11-01T15:10:40.496Z,11.80
2022-11-01T15:13:08.788Z,12.70
2022-11-01T15:15:39.376Z,12.75
2022-11-01T15:18:16.082Z,13.50
2022-11-01T15:20:49.367Z,12.63
2022-11-01T15:23:21.198Z,13.95
2022-11-01T15:25:52.586Z,13.48
2022-11-01T15:28:24.541Z,13.65
2022-11-01T15:30:58.489Z,13.68
2022-11-01T15:33:30.673Z,14.30
2022-11-01T15:36:00.733Z,16.02
2022-11-01T15:38:29.096Z,14.93
2022-11-01T15:40:57.206Z,15.20
2022-11-01T15:43:27.227Z,14.90
2022-11-01T15:45:58.767Z,15.82
2022-11-01T15:48:40.437Z,15.60
2022-11-01T15:51:16.064Z,16.35
2022-11-01T15:53:44.053Z,15.38
2022-11-01T15:56:18.141Z,16.70
2022-11-01T15:58:51.643Z,17.60
2022-11-01T16:01:23.085Z,17.48
2022-11-01T16:03:57.238Z,18.25
2022-11-01T16:06:28.752Z,24.67
2022-11-01T16:08:59.436Z,21.02
2022-11-01T16:11:30.517Z,18.67
2022-11-01T16:14:01.584Z,16.50
2022-11-01T16:16:29.639Z,16.05
2022-11-01T16:18:58.673Z,15.15
2022-11-01T16:21:31.796Z,16.23
2022-11-01T16:24:06.753Z,15.15
2022-11-01T16:26:52.150Z,14.98
2022-11-01T16:29:20.093Z,15.77
2022-11-01T16:32:09.309Z,15.75
2022-11-01T16:34:39.966Z,16.98
2022-11-01T16:37:19.318Z,15.15
2022-11-01T16:39:47.996Z,15.88
2022-11-01T16:42:16.976Z,16.25
2022-11-01T16:44:45.366Z,17.17
2022-11-01T16:47:15.195Z,18.15
2022-11-01T16:49:48.509Z,23.20
2022-11-01T16:52:17.266Z,20.58
2022-11-01T16:54:45.421Z,18.60
2022-11-01T16:57:25.855Z,21.27
2022-11-01T16:59:55.461Z,20.55
2022-11-01T17:02:26.734Z,21.50
2022-11-01T17:04:59.495Z,21.50
2022-11-01T17:07:27.612Z,21.60
2022-11-01T17:09:55.659Z,22.05
2022-11-01T17:12:23.690Z,21.40
2022-11-01T17:14:52.405Z,20.75
2022-11-01T17:17:24.519Z,20.60
2022-11-01T17:19:59.148Z,19.10
2022-11-01T17:22:34.308Z,20.83
2022-11-01T17:25:03.452Z,20.73
2022-11-01T17:27:31.835Z,20.67
2022-11-01T17:29:59.563Z,19.33
2022-11-01T17:32:27.623Z,20.75
2022-11-01T17:34:56.878Z,20.52
2022-11-01T17:37:27.180Z,21.35
2022-11-01T17:39:55.031Z,19.70
2022-11-01T17:42:23.603Z,19.58
2022-11-01T17:45:11.652Z,21.20
2022-11-01T17:47:39.728Z,22.55
2022-11-01T17:50:12.539Z,22.60
2022-11-01T17:52:40.880Z,24.05
2022-11-01T17:55:10.140Z,24.02
2022-11-01T17:57:38.019Z,29.00
2022-11-01T18:00:07.147Z,28.05
2022-11-01T18:02:35.650Z,27.25
2022-11-01T18:05:03.387Z,29.30
2022-11-01T18:07:37.679Z,28.13
2022-11-01T18:10:21.837Z,31.90
2022-11-01T18:13:01.109Z,31.80
2022-11-01T18:15:36.448Z,31.38
2022-11-01T18:18:24.608Z,27.33
2022-11-01T18:21:00.689Z,27.70
2022-11-01T18:23:31.347Z,25.98
2022-11-01T18:25:59.395Z,25.58
2022-11-01T18:28:30.079Z,25.67
2022-11-01T18:31:00.239Z,24.88
2022-11-01T18:33:35.333Z,25.25
2022-11-01T18:36:08.994Z,25.52
2022-11-01T18:38:44.097Z,26.00
2022-11-01T18:41:17.693Z,25.77
2022-11-01T18:43:45.616Z,24.88
2022-11-01T18:46:26.431Z,25.10
2022-11-01T18:49:00.243Z,23.52
2022-11-01T18:51:31.083Z,25.20
2022-11-01T18:54:21.444Z,24.90
2022-11-01T18:56:53.420Z,24.92
2022-11-01T18:59:30.176Z,25.25
2022-11-01T19:02:01.542Z,23.77
2022-11-01T19:04:32.413Z,24.10
2022-11-01T19:07:11.331Z,22.33
2022-11-01T19:09:43.873Z,22.23
2022-11-01T19:12:15.669Z,22.45
2022-11-01T19:14:44.581Z,23.40
2022-11-01T19:17:20.278Z,21.77
2022-11-01T19:19:48.363Z,22.23
2022-11-01T19:22:32.415Z,23.50
2022-11-01T19:25:03.091Z,22.70
2022-11-01T19:27:31.394Z,22.20
2022-11-01T19:29:59.900Z,22.23
2022-11-01T19:32:27.808Z,22.00
2022-11-01T19:34:57.512Z,22.75
2022-11-01T19:37:31.805Z,22.55
2022-11-01T19:40:14.340Z,25.80
2022-11-01T19:42:42.147Z,23.80
2022-11-01T19:45:28.891Z,24.92
2022-11-01T19:47:57.945Z,26.08
2022-11-01T19:50:29.142Z,26.38
2022-11-01T19:52:58.577Z,25.98
2022-11-01T19:55:38.144Z,26.33
2022-11-01T19:58:25.801Z,24.95
2022-11-01T20:01:19.646Z,24.42
2022-11-01T20:03:49.634Z,26.80
2022-11-01T20:06:21.788Z,26.75
2022-11-01T20:08:52.355Z,28.75
2022-11-01T20:11:21.859Z,27.60
2022-11-01T20:13:49.594Z,28.13
2022-11-01T20:16:17.958Z,31.02
2022-11-01T20:18:45.911Z,30.20
2022-11-01T20:21:13.818Z,32.30
2022-11-01T20:23:41.706Z,32.58
2022-11-01T20:26:12.019Z,32.95
2022-11-01T20:28:41.184Z,29.75
2022-11-01T20:31:09.423Z,33.08
2022-11-01T20:33:37.413Z,33.78
2022-11-01T20:36:11.026Z,32.97
2022-11-01T20:38:39.668Z,32.30
2022-11-01T20:41:07.809Z,34.10
2022-11-01T20:43:35.706Z,35.38
2022-11-01T20:46:05.362Z,35.25
2022-11-01T20:48:33.183Z,37.72
2022-11-01T20:51:01.232Z,38.63
2022-11-01T20:53:29.998Z,36.72
2022-11-01T20:55:58.200Z,35.65
2022-11-01T20:58:26.098Z,32.53
2022-11-01T21:00:54.156Z,31.92
2022-11-01T21:03:24.871Z,31.48
2022-11-01T21:05:52.792Z,31.60
2022-11-01T21:08:23.840Z,30.55
2022-11-01T21:10:55.100Z,30.73
2022-11-01T21:13:29.855Z,33.47
2022-11-01T21:15:59.339Z,34.30
2022-11-01T21:18:37.724Z,34.45
2022-11-01T21:21:28.270Z,35.40
2022-11-01T21:23:57.293Z,34.00
2022-11-01T21:26:30.761Z,33.72
2022-11-01T21:29:03.316Z,35.00
2022-11-01T21:31:32.839Z,34.40
2022-11-01T21:34:17.607Z,33.65
2022-11-01T21:36:47.811Z,32.95
2022-11-01T21:39:18.421Z,32.92
2022-11-01T21:41:48.253Z,31.38
2022-11-01T21:44:22.869Z,33.30
2022-11-01T21:46:52.604Z,32.83
2022-11-01T21:49:26.327Z,30.95
2022-11-01T21:51:55.664Z,33.08
2022-11-01T21:54:23.939Z,35.42
2022-11-01T21:56:52.190Z,36.25
2022-11-01T21:59:19.932Z,35.15
2022-11-01T22:01:49.404Z,35.00
2022-11-01T22:04:18.214Z,35.10
2022-11-01T22:06:48.839Z,33.47
2022-11-01T22:09:17.387Z,33.75
2022-11-01T22:11:45.684Z,33.28
2022-11-01T22:14:13.665Z,32.15
2022-11-01T22:16:41.816Z,32.58
2022-11-01T22:19:09.627Z,33.25
2022-11-01T22:21:37.722Z,34.33
2022-11-01T22:24:08.113Z,33.45
2022-11-01T22:26:36.253Z,33.00
2022-11-01T22:29:04.135Z,32.33
2022-11-01T22:31:32.423Z,34.38
2022-11-01T22:34:00.119Z,32.78
2022-11-01T22:36:29.855Z,32.30
2022-11-01T22:38:59.506Z,32.60
2022-11-01T22:41:33.171Z,31.38
2022-11-01T22:44:04.647Z,34.28
2022-11-01T22:46:44.635Z,32.03
2022-11-01T22:49:17.263Z,33.42
2022-11-01T22:51:46.794Z,35.83
2022-11-01T22:54:38.164Z,33.00
2022-11-01T22:57:16.245Z,30.88
2022-11-01T22:59:46.974Z,32.33
2022-11-01T23:02:28.647Z,32.45
2022-11-01T23:05:20.016Z,26.55
2022-11-01T23:07:49.985Z,30.25
2022-11-01T23:10:27.647Z,27.95
2022-11-01T23:13:19.582Z,28.35
2022-11-01T23:15:47.847Z,29.10
2022-11-01T23:18:22.150Z,28.58
2022-11-01T23:20:56.349Z,29.08
2022-11-01T23:23:25.435Z,28.33
2022-11-01T23:25:54.399Z,29.08
2022-11-01T23:28:24.651Z,27.63
2022-11-01T23:30:53.670Z,26.70
2022-11-01T23:33:23.468Z,28.45
2022-11-01T23:35:54.289Z,28.33
2022-11-01T23:38:24.913Z,30.30
2022-11-01T23:40:54.863Z,30.77
2022-11-01T23:43:28.408Z,30.58
2022-11-01T23:45:56.347Z,31.77
2022-11-01T23:48:25.212Z,31.75
2022-11-01T23:50:54.056Z,29.05
2022-11-01T23:53:31.960Z,30.27
2022-11-01T23:56:01.086Z,30.30
2022-11-01T23:58:33.652Z,30.27
